Time;durP1;ratioP1;P1;durP2;ratioP2;P2;SDS_P1;SDS_P2;PMS_P1;PMS_P2;Temp;Humidity;BMP_temperature;BMP_pressure;BME280_temperature;BME280_humidity;BME280_pressure;Samples;Min_cycle;Max_cycle;Signal;HPM_P1;HPM_P2
2022/03/05 00:02:00;;;;;;;15.52;7.57;;;0.50;99.90;;;;;;5032748;28;20041;-60
2022/03/05 00:04:25;;;;;;;14.93;7.07;;;0.50;99.90;;;;;;5026102;28;20406;-59
2022/03/05 00:06:51;;;;;;;13.73;6.88;;;0.50;99.90;;;;;;5031547;28;20072;-59
2022/03/05 00:09:17;;;;;;;16.17;7.20;;;0.50;99.90;;;;;;5014736;28;20037;-59
2022/03/05 00:11:43;;;;;;;12.25;6.80;;;0.40;99.90;;;;;;5031343;28;20033;-60
2022/03/05 00:14:09;;;;;;;14.75;7.07;;;0.40;99.90;;;;;;5032391;28;20080;-59
2022/03/05 00:16:35;;;;;;;14.05;7.38;;;0.40;99.90;;;;;;5032250;28;20441;-59
2022/03/05 00:19:01;;;;;;;15.00;6.50;;;0.40;99.90;;;;;;5032606;28;20127;-59
2022/03/05 00:21:27;;;;;;;13.20;6.90;;;0.40;99.90;;;;;;5032409;28;20073;-59
2022/03/05 00:23:52;;;;;;;13.07;6.70;;;0.30;99.90;;;;;;5032274;28;20052;-60
2022/03/05 00:26:18;;;;;;;12.73;7.05;;;0.30;99.90;;;;;;5032255;28;20030;-60
2022/03/05 00:28:44;;;;;;;13.63;7.45;;;0.40;99.90;;;;;;5032349;28;20073;-59
2022/03/05 00:31:09;;;;;;;11.77;6.63;;;0.40;99.90;;;;;;5032356;28;20059;-59
2022/03/05 00:33:35;;;;;;;13.05;6.78;;;0.40;99.90;;;;;;5032544;28;20061;-59
2022/03/05 00:36:01;;;;;;;12.95;6.38;;;0.30;99.90;;;;;;5032384;28;20042;-59
2022/03/05 00:38:27;;;;;;;12.52;6.53;;;0.30;99.90;;;;;;5032168;28;20370;-59
2022/03/05 00:40:52;;;;;;;12.80;6.22;;;0.30;99.90;;;;;;5031952;28;20039;-59
2022/03/05 00:43:18;;;;;;;11.32;6.43;;;0.30;99.90;;;;;;5032285;28;20057;-59
2022/03/05 00:45:44;;;;;;;17.60;7.57;;;0.40;99.90;;;;;;5032095;28;20041;-59
2022/03/05 00:48:10;;;;;;;12.43;6.72;;;0.30;99.90;;;;;;5032267;28;20034;-59
2022/03/05 00:50:36;;;;;;;13.25;6.90;;;0.30;99.90;;;;;;5032251;28;20045;-59
2022/03/05 00:53:01;;;;;;;11.98;7.05;;;0.30;99.90;;;;;;5032225;28;20456;-59
2022/03/05 00:55:27;;;;;;;13.80;6.45;;;0.20;99.90;;;;;;5014587;28;20042;-59
2022/03/05 00:57:53;;;;;;;13.30;6.85;;;0.20;99.90;;;;;;5032147;28;20099;-61
2022/03/05 01:00:19;;;;;;;13.30;6.80;;;0.20;99.90;;;;;;5031806;28;20061;-59
2022/03/05 01:02:45;;;;;;;12.85;7.25;;;0.20;99.90;;;;;;5031825;28;20094;-60
2022/03/05 01:05:11;;;;;;;13.77;6.57;;;0.20;99.90;;;;;;5025514;28;20041;-60
2022/03/05 01:07:37;;;;;;;14.25;6.65;;;0.20;99.90;;;;;;5032199;28;20037;-60
2022/03/05 01:10:05;;;;;;;20.05;7.82;;;0.20;99.90;;;;;;5035381;28;20550;-59
2022/03/05 01:12:31;;;;;;;11.82;6.70;;;0.20;99.90;;;;;;5035959;28;20124;-59
2022/03/05 01:14:57;;;;;;;12.68;6.40;;;0.20;99.90;;;;;;5035860;28;20033;-59
2022/03/05 01:17:22;;;;;;;14.15;6.85;;;0.20;99.90;;;;;;5035378;28;20079;-60
2022/03/05 01:19:48;;;;;;;11.57;6.32;;;0.20;99.90;;;;;;5034587;28;20049;-59
2022/03/05 01:22:14;;;;;;;14.50;7.97;;;0.20;99.90;;;;;;5035679;28;20095;-59
2022/03/05 01:24:40;;;;;;;14.05;6.97;;;0.20;99.90;;;;;;5035716;28;20038;-59
2022/03/05 01:27:06;;;;;;;13.95;7.13;;;0.20;99.90;;;;;;5035604;28;20052;-59
2022/03/05 01:29:32;;;;;;;12.98;7.18;;;0.10;99.90;;;;;;5035692;28;20045;-60
2022/03/05 01:31:57;;;;;;;14.88;7.97;;;0.10;99.90;;;;;;5039226;28;20098;-59
2022/03/05 01:34:23;;;;;;;19.38;7.95;;;0.00;99.90;;;;;;5039497;28;20112;-59
2022/03/05 01:36:49;;;;;;;14.68;7.97;;;0.10;99.90;;;;;;5035248;28;20378;-59
2022/03/05 01:39:16;;;;;;;14.57;8.73;;;0.10;99.90;;;;;;5035108;28;20474;-59
2022/03/05 01:41:44;;;;;;;13.63;6.95;;;0.00;99.90;;;;;;5034811;28;20049;-60
2022/03/05 01:44:10;;;;;;;15.45;7.47;;;0.00;99.90;;;;;;5035381;28;20050;-59
2022/03/05 01:46:38;;;;;;;16.25;8.98;;;0.00;99.90;;;;;;5035434;28;20397;-60
2022/03/05 01:49:12;;;;;;;14.38;7.28;;;-0.10;99.90;;;;;;5035264;28;20048;-59
2022/03/05 01:51:39;;;;;;;14.95;7.70;;;-0.10;99.90;;;;;;5035159;28;20046;-59
2022/03/05 01:54:06;;;;;;;15.35;7.85;;;-0.10;99.90;;;;;;5034880;28;20056;-59
2022/03/05 01:56:32;;;;;;;14.93;8.27;;;-0.10;99.90;;;;;;5035094;28;20045;-59
2022/03/05 01:58:59;;;;;;;14.07;8.48;;;-0.10;99.90;;;;;;5034965;28;20160;-59
2022/03/05 02:01:26;;;;;;;15.60;8.18;;;-0.10;99.90;;;;;;5034838;28;20044;-59
2022/03/05 02:03:52;;;;;;;15.05;7.63;;;-0.10;99.90;;;;;;5030204;28;20068;-59
2022/03/05 02:06:19;;;;;;;13.43;7.28;;;-0.10;99.90;;;;;;5015127;28;20080;-59
2022/03/05 02:08:45;;;;;;;15.27;7.95;;;-0.20;99.90;;;;;;5034881;28;20439;-59
2022/03/05 02:11:11;;;;;;;14.82;7.70;;;-0.20;99.90;;;;;;5016936;28;20402;-59
2022/03/05 02:13:36;;;;;;;16.92;8.23;;;-0.20;99.90;;;;;;5034718;28;20065;-59
2022/03/05 02:16:03;;;;;;;15.77;7.43;;;-0.20;99.90;;;;;;5034162;28;20049;-58
2022/03/05 02:18:29;;;;;;;16.25;8.25;;;-0.20;99.90;;;;;;5034731;28;20053;-59
2022/03/05 02:20:55;;;;;;;14.40;7.72;;;-0.20;99.90;;;;;;5034164;28;20087;-59
2022/03/05 02:23:21;;;;;;;14.20;7.90;;;-0.30;99.90;;;;;;5034696;28;20033;-59
2022/03/05 02:25:55;;;;;;;14.48;7.88;;;-0.20;99.90;;;;;;5034470;28;20040;-60
2022/03/05 02:28:22;;;;;;;15.07;7.03;;;-0.30;99.90;;;;;;5034207;28;20077;-59
2022/03/05 02:30:48;;;;;;;16.08;8.13;;;-0.40;99.90;;;;;;5034133;28;20041;-59
2022/03/05 02:33:14;;;;;;;13.95;6.97;;;-0.30;99.90;;;;;;5034426;28;20115;-59
2022/03/05 02:35:43;;;;;;;12.98;6.75;;;-0.30;99.90;;;;;;5034382;28;20045;-59
2022/03/05 02:38:10;;;;;;;15.05;7.75;;;-0.40;99.90;;;;;;5034249;28;20033;-60
2022/03/05 02:40:36;;;;;;;13.93;7.35;;;-0.40;99.90;;;;;;5032946;28;20374;-59
2022/03/05 02:43:02;;;;;;;13.55;7.50;;;-0.40;99.90;;;;;;5033947;28;20044;-63
2022/03/05 02:45:27;;;;;;;14.15;7.88;;;-0.40;99.90;;;;;;5033728;28;20436;-60
2022/03/05 02:47:53;;;;;;;14.57;7.75;;;-0.40;99.90;;;;;;5033881;28;20042;-60
2022/03/05 02:50:18;;;;;;;15.95;8.15;;;-0.50;99.90;;;;;;5033738;28;20033;-60
2022/03/05 02:52:44;;;;;;;17.75;8.63;;;-0.50;99.90;;;;;;5034095;28;20075;-60
2022/03/05 02:55:10;;;;;;;16.40;8.00;;;-0.50;99.90;;;;;;5033771;28;20037;-60
2022/03/05 02:57:35;;;;;;;15.98;7.50;;;-0.50;99.90;;;;;;5034042;28;20076;-60
2022/03/05 03:00:01;;;;;;;14.57;7.57;;;-0.60;99.90;;;;;;5033689;28;20049;-59
2022/03/05 03:02:29;;;;;;;13.93;7.55;;;-0.60;99.90;;;;;;5033797;28;20068;-60
2022/03/05 03:04:54;;;;;;;13.10;7.43;;;-0.70;99.90;;;;;;5027453;28;20416;-60
2022/03/05 03:07:20;;;;;;;14.15;8.25;;;-0.70;99.90;;;;;;5033717;28;20113;-60
2022/03/05 03:09:46;;;;;;;16.15;7.90;;;-0.80;99.90;;;;;;5033695;28;20374;-60
2022/03/05 03:12:11;;;;;;;13.18;7.70;;;-0.80;99.90;;;;;;5032582;28;20045;-60
2022/03/05 03:14:37;;;;;;;14.25;8.02;;;-0.80;99.90;;;;;;5033607;28;20120;-60
2022/03/05 03:17:03;;;;;;;16.13;9.02;;;-0.80;99.90;;;;;;5033397;28;20583;-60
2022/03/05 03:19:29;;;;;;;15.68;9.23;;;-0.80;99.90;;;;;;5033353;28;20575;-60
2022/03/05 03:21:55;;;;;;;17.48;9.68;;;-0.90;99.90;;;;;;5032206;28;20121;-60
2022/03/05 03:24:21;;;;;;;16.77;9.82;;;-0.80;99.90;;;;;;5015260;28;20136;-58
2022/03/05 03:26:46;;;;;;;16.70;9.65;;;-0.80;99.90;;;;;;5033327;28;20083;-58
2022/03/05 03:29:12;;;;;;;14.60;8.43;;;-0.80;99.90;;;;;;5033362;28;20044;-58
2022/03/05 03:31:38;;;;;;;15.90;8.98;;;-0.80;99.90;;;;;;5032196;28;20052;-58
2022/03/05 03:34:04;;;;;;;16.73;9.60;;;-0.80;99.90;;;;;;5033010;28;20053;-59
2022/03/05 03:36:30;;;;;;;15.88;9.27;;;-0.90;99.90;;;;;;5033121;28;20049;-57
2022/03/05 03:38:56;;;;;;;16.45;8.85;;;-0.80;99.90;;;;;;5032754;28;20088;-57
2022/03/05 03:41:21;;;;;;;17.60;9.43;;;-0.80;99.90;;;;;;5032660;28;20037;-58
2022/03/05 03:43:47;;;;;;;14.68;8.68;;;-0.90;99.90;;;;;;5032706;28;20095;-59
2022/03/05 03:46:13;;;;;;;15.05;8.93;;;-0.90;99.90;;;;;;5014734;28;20064;-58
2022/03/05 03:48:39;;;;;;;16.13;8.52;;;-0.90;99.90;;;;;;5032605;28;20128;-58
2022/03/05 03:51:05;;;;;;;17.73;8.40;;;-0.90;99.90;;;;;;5032933;28;20070;-58
2022/03/05 03:53:30;;;;;;;15.60;8.68;;;-0.90;99.90;;;;;;5032595;28;20037;-57
2022/03/05 03:55:56;;;;;;;17.77;8.70;;;-0.90;99.90;;;;;;5032765;28;20366;-58
2022/03/05 03:58:22;;;;;;;15.20;8.25;;;-0.90;99.90;;;;;;5032681;28;20409;-58
2022/03/05 04:00:47;;;;;;;15.70;9.43;;;-0.90;99.90;;;;;;5032637;28;20079;-58
2022/03/05 04:03:13;;;;;;;13.10;7.57;;;-0.90;99.90;;;;;;5037930;28;20053;-57
2022/03/05 04:05:39;;;;;;;16.13;8.32;;;-0.90;99.90;;;;;;5028252;28;20045;-57
2022/03/05 04:10:49;;;;;;;15.15;7.97;;;-0.90;99.90;;;;;;5032657;28;20110;-59
2022/03/05 04:13:14;;;;;;;15.90;8.60;;;-0.90;99.90;;;;;;5032701;28;20101;-58
2022/03/05 04:15:40;;;;;;;14.45;8.55;;;-0.90;99.90;;;;;;5032295;28;20088;-58
2022/03/05 04:18:06;;;;;;;16.38;8.48;;;-0.90;99.90;;;;;;5032136;28;20053;-57
2022/03/05 04:20:33;;;;;;;16.20;8.30;;;-0.90;99.90;;;;;;5032273;28;20127;-57
2022/03/05 04:22:58;;;;;;;16.50;8.82;;;-0.90;99.90;;;;;;5032420;28;20045;-58
2022/03/05 04:25:28;;;;;;;12.70;7.65;;;-1.00;99.90;;;;;;5014454;28;20041;-58
2022/03/05 04:27:54;;;;;;;15.35;8.63;;;-1.00;99.90;;;;;;5032102;28;20034;-58
2022/03/05 04:30:20;;;;;;;14.82;8.13;;;-1.00;99.90;;;;;;5032314;28;20152;-57
2022/03/05 04:32:46;;;;;;;15.25;7.95;;;-1.00;99.90;;;;;;5032179;28;20063;-57
2022/03/05 04:35:11;;;;;;;15.43;8.13;;;-1.00;99.90;;;;;;5032231;28;20049;-58
2022/03/05 04:37:38;;;;;;;13.43;8.05;;;-1.00;99.90;;;;;;5030933;28;20048;-58
2022/03/05 04:40:05;;;;;;;14.77;7.85;;;-1.00;99.90;;;;;;5032248;28;20064;-58
2022/03/05 04:42:30;;;;;;;14.95;8.27;;;-1.00;99.90;;;;;;5033280;28;20037;-58
2022/03/05 04:44:56;;;;;;;17.20;8.15;;;-1.10;99.90;;;;;;5036123;28;20555;-58
2022/03/05 04:47:22;;;;;;;13.73;7.32;;;-1.00;99.90;;;;;;5036379;28;20040;-58
2022/03/05 04:49:48;;;;;;;15.23;7.47;;;-1.10;99.90;;;;;;5036030;28;20526;-58
2022/03/05 04:52:14;;;;;;;15.73;8.02;;;-1.10;99.90;;;;;;5036200;28;20056;-58
2022/03/05 04:54:40;;;;;;;13.57;8.82;;;-1.10;99.90;;;;;;5035868;28;20128;-58
2022/03/05 04:57:06;;;;;;;16.77;8.23;;;-1.10;99.90;;;;;;5035929;28;20045;-57
2022/03/05 04:59:32;;;;;;;14.18;7.53;;;-1.10;99.90;;;;;;5035990;28;20049;-57
2022/03/05 05:01:58;;;;;;;13.30;7.20;;;-1.10;99.90;;;;;;5035840;28;20037;-57
2022/03/05 05:04:24;;;;;;;15.32;7.60;;;-1.10;99.90;;;;;;5029553;28;20069;-58
2022/03/05 05:06:49;;;;;;;13.23;7.30;;;-1.10;99.90;;;;;;5036072;28;20072;-58
2022/03/05 05:09:15;;;;;;;13.43;6.75;;;-1.10;99.90;;;;;;5035689;28;20439;-58
2022/03/05 05:11:44;;;;;;;12.48;6.75;;;-1.10;99.90;;;;;;5018014;28;20041;-58
2022/03/05 05:14:10;;;;;;;13.68;6.82;;;-1.10;99.90;;;;;;5035692;28;20045;-58
2022/03/05 05:16:37;;;;;;;13.05;6.85;;;-1.10;99.90;;;;;;5035315;28;20417;-58
2022/03/05 05:21:47;;;;;;;12.18;6.50;;;-1.10;99.90;;;;;;5035132;28;20060;-58
2022/03/05 05:24:13;;;;;;;12.80;6.30;;;-1.10;99.90;;;;;;5035679;28;20041;-58
2022/03/05 05:26:39;;;;;;;11.73;7.18;;;-1.10;99.90;;;;;;5035377;28;20037;-58
2022/03/05 05:29:05;;;;;;;13.73;6.93;;;-1.10;99.90;;;;;;5035344;28;20033;-58
2022/03/05 05:31:30;;;;;;;13.32;6.90;;;-1.20;99.90;;;;;;5035491;28;20047;-58
2022/03/05 05:33:56;;;;;;;12.50;6.47;;;-1.10;99.90;;;;;;5035116;28;20049;-57
2022/03/05 05:36:23;;;;;;;13.77;6.80;;;-1.10;99.90;;;;;;5035094;28;20049;-57
2022/03/05 05:38:48;;;;;;;12.90;6.97;;;-1.10;99.90;;;;;;5035428;28;20029;-58
2022/03/05 05:41:16;;;;;;;14.75;6.70;;;-1.10;99.90;;;;;;5035228;28;20060;-58
2022/03/05 05:43:41;;;;;;;13.95;6.93;;;-1.10;99.90;;;;;;5035165;28;20037;-57
2022/03/05 05:46:07;;;;;;;15.30;7.57;;;-1.10;99.90;;;;;;5035340;28;20092;-58
2022/03/05 05:48:33;;;;;;;11.82;6.40;;;-1.10;99.90;;;;;;5034959;28;20632;-58
2022/03/05 05:50:58;;;;;;;13.43;6.60;;;-1.10;99.90;;;;;;5017573;28;20163;-58
2022/03/05 05:53:25;;;;;;;13.80;6.47;;;-1.10;99.90;;;;;;5034906;28;20539;-58
2022/03/05 05:55:53;;;;;;;12.32;6.50;;;-1.10;99.90;;;;;;5034382;28;20037;-57
2022/03/05 05:58:19;;;;;;;12.93;7.20;;;-1.20;99.90;;;;;;5034810;28;20430;-58
2022/03/05 06:00:44;;;;;;;13.45;7.53;;;-1.20;99.90;;;;;;5017035;28;20120;-57
2022/03/05 06:03:10;;;;;;;14.57;7.95;;;-1.20;99.90;;;;;;5034673;28;20124;-58
2022/03/05 06:05:36;;;;;;;16.08;8.02;;;-1.20;99.90;;;;;;5028591;28;20045;-58
2022/03/05 06:08:02;;;;;;;14.13;7.75;;;-1.20;99.90;;;;;;5034806;28;20029;-58
2022/03/05 06:10:27;;;;;;;14.88;8.02;;;-1.20;99.90;;;;;;5034526;28;20167;-58
2022/03/05 06:12:53;;;;;;;13.43;7.05;;;-1.20;99.90;;;;;;5034747;28;20088;-58
2022/03/05 06:15:19;;;;;;;14.27;7.80;;;-1.20;99.90;;;;;;5034638;28;20042;-58
2022/03/05 06:17:45;;;;;;;13.43;7.50;;;-1.20;99.90;;;;;;5034352;28;20108;-58
2022/03/05 06:20:11;;;;;;;13.43;7.03;;;-1.20;99.90;;;;;;5034705;28;20397;-58
2022/03/05 06:22:37;;;;;;;13.07;7.65;;;-1.20;99.90;;;;;;5016391;28;20045;-58
2022/03/05 06:25:04;;;;;;;14.80;7.55;;;-1.20;99.90;;;;;;5034488;28;20136;-59
2022/03/05 06:27:30;;;;;;;14.15;7.25;;;-1.20;99.90;;;;;;5034149;28;20482;-58
2022/03/05 06:29:56;;;;;;;13.07;6.70;;;-1.10;99.90;;;;;;5031977;28;20048;-58
2022/03/05 06:32:21;;;;;;;14.30;7.25;;;-1.20;99.90;;;;;;5037978;28;20038;-58
2022/03/05 06:34:47;;;;;;;14.48;7.38;;;-1.10;99.90;;;;;;5036854;28;20120;-57
2022/03/05 06:37:14;;;;;;;14.13;7.53;;;-1.10;99.90;;;;;;5032958;28;20394;-58
2022/03/05 06:39:40;;;;;;;15.25;7.50;;;-1.10;99.90;;;;;;5033207;28;20054;-58
2022/03/05 06:42:06;;;;;;;14.13;8.00;;;-1.10;99.90;;;;;;5033051;28;20049;-58
2022/03/05 06:44:35;;;;;;;14.93;8.98;;;-1.00;99.90;;;;;;5033328;28;20080;-58
2022/03/05 06:47:02;;;;;;;16.83;8.10;;;-1.00;99.90;;;;;;5033333;28;20454;-59
2022/03/05 06:49:27;;;;;;;12.90;7.55;;;-1.00;99.90;;;;;;5033008;28;20620;-59
2022/03/05 06:51:53;;;;;;;14.02;7.47;;;-1.00;99.90;;;;;;5032603;28;20130;-58
2022/03/05 06:54:19;;;;;;;13.25;7.28;;;-1.00;99.90;;;;;;5029784;28;20060;-58
2022/03/05 06:56:44;;;;;;;13.15;6.82;;;-0.90;99.90;;;;;;5023467;28;20041;-59
2022/03/05 06:59:10;;;;;;;15.77;8.02;;;-0.90;99.90;;;;;;5018864;28;20049;-59
2022/03/05 07:01:36;;;;;;;14.82;7.63;;;-0.90;99.90;;;;;;5024154;28;20056;-59
2022/03/05 07:04:02;;;;;;;13.32;7.10;;;-0.80;99.90;;;;;;5022572;28;20069;-59
2022/03/05 07:06:27;;;;;;;14.05;7.28;;;-0.80;99.90;;;;;;5019972;28;20038;-58
2022/03/05 07:08:53;;;;;;;12.55;7.05;;;-0.80;99.90;;;;;;5027053;28;20049;-58
2022/03/05 07:11:19;;;;;;;12.45;7.13;;;-0.80;99.90;;;;;;5032786;28;20037;-59
2022/03/05 07:13:45;;;;;;;15.75;8.07;;;-0.70;99.90;;;;;;5032468;28;20037;-59
2022/03/05 07:16:11;;;;;;;14.52;7.40;;;-0.70;99.90;;;;;;5032739;28;20064;-59
2022/03/05 07:18:37;;;;;;;12.75;7.70;;;-0.70;99.90;;;;;;5032155;28;20049;-59
2022/03/05 07:21:03;;;;;;;13.82;7.53;;;-0.60;99.90;;;;;;5032633;28;20107;-59
2022/03/05 07:23:29;;;;;;;13.35;7.32;;;-0.60;99.90;;;;;;5032792;28;20533;-59
2022/03/05 07:25:54;;;;;;;14.80;8.10;;;-0.50;99.90;;;;;;5033160;28;20133;-59
2022/03/05 07:28:20;;;;;;;14.40;8.02;;;-0.50;99.90;;;;;;5031822;28;20029;-59
2022/03/05 07:30:46;;;;;;;14.52;7.65;;;-0.40;99.90;;;;;;5032727;28;20393;-59
2022/03/05 07:33:11;;;;;;;13.73;7.63;;;-0.40;99.90;;;;;;5032493;28;20529;-59
2022/03/05 07:35:37;;;;;;;17.15;7.55;;;-0.30;99.90;;;;;;5015361;28;20049;-59
2022/03/05 07:38:03;;;;;;;15.38;7.60;;;-0.20;99.90;;;;;;5033030;28;20390;-59
2022/03/05 07:40:28;;;;;;;13.27;7.85;;;-0.20;99.90;;;;;;5033152;28;20041;-59
2022/03/05 07:42:54;;;;;;;14.35;7.80;;;-0.10;99.90;;;;;;5032699;28;20045;-58
2022/03/05 07:45:20;;;;;;;14.32;7.72;;;-0.20;99.90;;;;;;5032994;28;20044;-59
2022/03/05 07:47:46;;;;;;;15.13;8.27;;;-0.10;99.90;;;;;;5032890;28;20044;-59
2022/03/05 07:50:11;;;;;;;15.82;7.90;;;0.00;99.90;;;;;;5032612;28;20395;-59
2022/03/05 07:52:37;;;;;;;13.43;7.15;;;0.00;99.90;;;;;;5032351;28;20075;-59
2022/03/05 07:55:03;;;;;;;15.38;7.57;;;0.10;99.90;;;;;;5032528;28;20037;-59
2022/03/05 07:57:31;;;;;;;15.07;7.55;;;0.10;99.90;;;;;;5032611;28;20033;-59
2022/03/05 07:59:57;;;;;;;16.85;9.05;;;0.20;99.90;;;;;;5032386;28;20065;-59
2022/03/05 08:02:22;;;;;;;15.82;8.18;;;0.30;99.90;;;;;;5031095;28;20486;-59
2022/03/05 08:04:49;;;;;;;17.50;8.05;;;0.30;99.90;;;;;;5026384;28;20045;-59
2022/03/05 08:07:16;;;;;;;17.30;8.75;;;0.30;99.90;;;;;;5012726;28;20049;-59
2022/03/05 08:09:43;;;;;;;16.98;8.30;;;0.40;99.90;;;;;;5012700;28;20034;-60
2022/03/05 08:12:10;;;;;;;15.45;8.25;;;0.50;99.90;;;;;;5012859;28;20118;-59
2022/03/05 08:14:37;;;;;;;15.23;8.25;;;0.60;99.90;;;;;;5012516;28;20046;-59
2022/03/05 08:17:04;;;;;;;16.85;8.70;;;0.60;99.90;;;;;;5011822;28;20054;-59
2022/03/05 08:19:30;;;;;;;15.93;8.50;;;0.70;99.90;;;;;;5012510;28;20110;-59
2022/03/05 08:21:56;;;;;;;14.90;8.00;;;0.80;99.90;;;;;;5012633;28;20053;-59
2022/03/05 08:24:21;;;;;;;16.80;8.57;;;0.90;99.90;;;;;;5012690;28;20042;-59
2022/03/05 08:26:47;;;;;;;16.23;9.25;;;0.90;99.90;;;;;;4994770;28;20049;-59
2022/03/05 08:29:13;;;;;;;17.13;9.25;;;1.10;99.90;;;;;;5012419;28;20052;-59
2022/03/05 08:31:39;;;;;;;19.17;9.18;;;1.20;99.90;;;;;;5012543;28;20506;-59
2022/03/05 08:34:04;;;;;;;17.50;9.65;;;1.20;99.90;;;;;;5012659;28;20045;-59
2022/03/05 08:36:32;;;;;;;16.55;8.65;;;1.30;99.90;;;;;;5012399;28;20454;-59
2022/03/05 08:38:58;;;;;;;16.67;8.30;;;1.40;99.90;;;;;;5012353;28;20060;-59
2022/03/05 08:41:25;;;;;;;16.77;9.18;;;1.40;99.90;;;;;;5012481;28;20139;-59
2022/03/05 08:43:53;;;;;;;19.67;9.48;;;1.50;99.90;;;;;;5012138;28;20506;-59
2022/03/05 08:46:20;;;;;;;15.55;8.63;;;1.60;99.90;;;;;;5012235;28;20045;-60
2022/03/05 08:48:45;;;;;;;17.58;10.35;;;1.70;99.90;;;;;;5012376;28;20037;-59
2022/03/05 08:51:11;;;;;;;15.70;8.15;;;1.70;99.90;;;;;;5012121;28;20063;-59
2022/03/05 08:53:37;;;;;;;15.63;7.78;;;1.80;99.90;;;;;;4994748;28;20038;-59
2022/03/05 08:56:03;;;;;;;20.38;9.43;;;1.80;99.90;;;;;;5012054;28;20070;-59
2022/03/05 08:58:29;;;;;;;18.10;9.23;;;1.80;99.90;;;;;;5012171;28;20045;-59
2022/03/05 09:00:54;;;;;;;18.05;9.68;;;1.90;99.90;;;;;;5012278;28;20046;-59
2022/03/05 09:03:20;;;;;;;17.77;8.23;;;1.90;99.90;;;;;;5016913;28;20069;-59
2022/03/05 09:05:46;;;;;;;16.58;8.75;;;2.00;99.90;;;;;;5021631;28;20045;-59
2022/03/05 09:08:13;;;;;;;15.70;9.20;;;2.10;99.90;;;;;;5011825;28;20034;-59
2022/03/05 09:10:39;;;;;;;16.00;9.02;;;2.20;99.90;;;;;;5011948;28;20045;-58
2022/03/05 09:13:05;;;;;;;16.65;8.82;;;2.20;99.90;;;;;;5012209;28;20037;-60
2022/03/05 09:15:31;;;;;;;20.00;9.73;;;2.20;99.90;;;;;;4994457;28;20121;-59
2022/03/05 09:17:56;;;;;;;16.15;9.05;;;2.30;99.90;;;;;;5011790;28;20057;-58
2022/03/05 09:20:22;;;;;;;19.55;8.60;;;2.30;99.90;;;;;;5011934;28;20046;-59
2022/03/05 09:22:48;;;;;;;18.17;9.15;;;2.40;99.90;;;;;;4994678;28;20127;-59
2022/03/05 09:25:14;;;;;;;18.63;8.88;;;2.50;99.90;;;;;;5012004;28;20085;-59
2022/03/05 09:27:40;;;;;;;19.15;9.65;;;2.50;99.90;;;;;;5011970;28;20522;-59
2022/03/05 09:30:06;;;;;;;19.05;10.25;;;2.50;99.90;;;;;;5013952;28;20084;-59
2022/03/05 09:32:32;;;;;;;17.75;9.10;;;2.60;99.90;;;;;;5015151;28;20064;-59
2022/03/05 09:34:59;;;;;;;19.13;8.98;;;2.60;99.90;;;;;;4998044;28;20470;-59
2022/03/05 09:37:30;;;;;;;17.20;9.38;;;2.60;99.90;;;;;;5015419;28;20056;-59
2022/03/05 09:39:56;;;;;;;19.30;9.68;;;2.70;99.90;;;;;;5015560;28;20042;-59
2022/03/05 09:42:23;;;;;;;17.15;9.50;;;2.80;99.90;;;;;;5015352;28;20038;-59
2022/03/05 09:44:48;;;;;;;19.63;10.55;;;2.80;99.90;;;;;;5015465;28;20045;-59
2022/03/05 09:47:15;;;;;;;21.45;10.50;;;2.90;99.90;;;;;;5015234;28;20446;-59
2022/03/05 09:49:40;;;;;;;18.20;9.93;;;2.90;99.90;;;;;;5015405;28;20037;-60
2022/03/05 09:52:07;;;;;;;18.63;9.40;;;3.00;99.90;;;;;;4997710;28;20433;-59
2022/03/05 09:54:33;;;;;;;20.05;10.75;;;3.00;99.90;;;;;;4996791;28;20057;-59
2022/03/05 09:56:59;;;;;;;18.77;10.55;;;3.10;99.90;;;;;;5014948;28;20123;-60
2022/03/05 09:59:25;;;;;;;21.02;9.75;;;3.10;99.90;;;;;;5014918;28;20042;-60
2022/03/05 10:01:51;;;;;;;19.20;9.68;;;3.10;99.90;;;;;;5014973;28;20046;-59
2022/03/05 10:04:22;;;;;;;18.58;10.82;;;3.20;99.90;;;;;;5021017;28;20041;-57
2022/03/05 10:07:16;;;;;;;17.40;8.80;;;3.20;99.90;;;;;;5015009;28;20111;-59
2022/03/05 10:09:43;;;;;;;20.25;10.07;;;3.30;99.90;;;;;;5012387;28;20046;-59
2022/03/05 10:12:33;;;;;;;18.05;9.95;;;3.30;99.90;;;;;;5014967;28;20080;-59
2022/03/05 10:15:09;;;;;;;19.65;9.88;;;3.30;99.90;;;;;;5014636;28;20080;-59
2022/03/05 10:18:00;;;;;;;19.65;10.30;;;3.40;99.90;;;;;;5014433;28;20073;-59
2022/03/05 10:20:32;;;;;;;19.85;10.45;;;3.50;99.90;;;;;;5014379;28;20517;-58
2022/03/05 10:22:59;;;;;;;19.85;9.80;;;3.50;99.90;;;;;;5014680;28;20042;-59
2022/03/05 10:25:46;;;;;;;21.33;11.07;;;3.60;99.90;;;;;;5014363;28;20045;-59
2022/03/05 10:28:17;;;;;;;21.58;9.95;;;3.60;99.90;;;;;;5014358;28;20050;-59
2022/03/05 10:30:49;;;;;;;18.77;9.65;;;3.60;99.90;;;;;;5014595;28;20393;-59
2022/03/05 10:33:23;;;;;;;23.08;11.23;;;3.60;99.90;;;;;;4996640;28;20052;-59
2022/03/05 10:35:49;;;;;;;20.85;10.25;;;3.60;99.90;;;;;;4996745;28;20683;-59
2022/03/05 10:38:14;;;;;;;21.83;10.48;;;3.70;99.90;;;;;;4996567;28;20045;-59
2022/03/05 10:40:40;;;;;;;20.77;10.98;;;3.70;99.90;;;;;;5014205;28;20563;-59
2022/03/05 10:43:07;;;;;;;19.60;9.77;;;3.80;99.90;;;;;;5014222;28;20049;-59
2022/03/05 10:45:54;;;;;;;20.42;10.23;;;3.80;99.90;;;;;;5014309;28;20038;-59
2022/03/05 10:48:21;;;;;;;21.42;10.57;;;3.80;99.90;;;;;;5014019;28;20042;-59
2022/03/05 10:50:47;;;;;;;22.10;10.30;;;3.90;99.90;;;;;;5013912;28;20045;-59
2022/03/05 10:53:13;;;;;;;20.45;10.65;;;4.00;99.90;;;;;;5014078;28;20045;-58
2022/03/05 10:55:38;;;;;;;21.17;10.52;;;4.10;99.90;;;;;;5013970;28;20046;-60
2022/03/05 10:58:14;;;;;;;20.45;11.63;;;4.10;99.90;;;;;;5014166;28;20120;-59
2022/03/05 11:00:45;;;;;;;19.08;9.90;;;4.20;99.90;;;;;;4996352;28;20140;-59
2022/03/05 11:03:11;;;;;;;18.40;10.00;;;4.20;99.90;;;;;;5013644;28;20048;-59
2022/03/05 11:05:38;;;;;;;21.63;11.07;;;4.30;99.90;;;;;;5018598;28;20042;-59
2022/03/05 11:08:05;;;;;;;21.67;10.60;;;4.30;99.90;;;;;;5013902;28;20429;-59
2022/03/05 11:10:31;;;;;;;20.25;10.70;;;4.40;99.90;;;;;;5013505;28;20077;-59
2022/03/05 11:12:59;;;;;;;19.92;10.85;;;4.40;99.90;;;;;;4995759;28;20046;-59
2022/03/05 11:15:27;;;;;;;21.50;10.82;;;4.60;99.90;;;;;;4979956;28;20081;-59
2022/03/05 11:17:53;;;;;;;23.50;10.65;;;4.60;99.90;;;;;;5013338;28;20066;-59
2022/03/05 11:20:19;;;;;;;21.17;11.00;;;4.60;99.90;;;;;;5013630;28;20046;-59
2022/03/05 11:22:49;;;;;;;24.25;11.27;;;4.70;99.90;;;;;;5013352;28;20053;-59
2022/03/05 11:25:21;;;;;;;20.60;10.70;;;4.80;99.90;;;;;;5013429;28;20041;-59
2022/03/05 11:27:59;;;;;;;23.25;10.85;;;4.90;99.90;;;;;;5013146;28;20490;-59
2022/03/05 11:30:27;;;;;;;23.55;11.73;;;4.90;99.90;;;;;;5013441;28;20440;-59
2022/03/05 11:32:53;;;;;;;22.33;11.50;;;5.00;99.90;;;;;;4997931;28;20038;-59
2022/03/05 11:35:28;;;;;;;19.17;10.15;;;5.00;99.90;;;;;;5017741;28;20528;-59
2022/03/05 11:37:54;;;;;;;19.17;10.70;;;5.00;99.90;;;;;;5013269;28;20457;-59
2022/03/05 11:40:34;;;;;;;20.30;10.85;;;5.10;99.90;;;;;;4995448;28;20045;-59
2022/03/05 11:43:23;;;;;;;20.00;10.07;;;5.20;99.90;;;;;;5012799;28;20038;-58
2022/03/05 11:45:49;;;;;;;20.92;9.98;;;5.20;99.90;;;;;;5011723;28;20037;-61
2022/03/05 11:48:27;;;;;;;20.70;9.65;;;5.30;99.90;;;;;;5011673;28;20486;-59
2022/03/05 11:50:56;;;;;;;24.48;11.27;;;5.40;99.90;;;;;;5013170;28;20175;-58
2022/03/05 11:53:22;;;;;;;22.48;11.48;;;5.40;99.90;;;;;;5012198;28;20045;-59
2022/03/05 11:55:48;;;;;;;20.90;11.43;;;5.50;99.90;;;;;;5012422;28;20048;-58
2022/03/05 11:58:14;;;;;;;21.60;12.07;;;5.50;99.90;;;;;;5010985;28;20104;-59
2022/03/05 12:00:41;;;;;;;25.30;12.50;;;5.60;99.90;;;;;;5012171;28;20073;-58
2022/03/05 12:03:08;;;;;;;28.85;15.50;;;5.70;99.90;;;;;;5012926;28;20037;-59
2022/03/05 12:05:37;;;;;;;30.17;15.93;;;5.70;99.90;;;;;;5024442;28;20076;-58
2022/03/05 12:08:04;;;;;;;29.10;15.45;;;5.70;99.90;;;;;;5032220;28;20041;-58
2022/03/05 12:10:31;;;;;;;26.27;14.93;;;5.80;99.90;;;;;;5032411;28;20041;-59
2022/03/05 12:13:05;;;;;;;29.48;15.68;;;5.80;99.90;;;;;;5032469;28;20359;-58
2022/03/05 12:15:42;;;;;;;25.30;13.68;;;5.80;99.90;;;;;;5032128;28;20092;-59
2022/03/05 12:18:12;;;;;;;21.98;12.70;;;5.80;99.90;;;;;;5031951;28;20497;-58
2022/03/05 12:20:39;;;;;;;23.67;13.32;;;5.90;99.90;;;;;;5032482;28;20390;-59
2022/03/05 12:23:10;;;;;;;25.48;13.10;;;5.80;99.90;;;;;;5014652;28;20444;-58
2022/03/05 12:25:38;;;;;;;19.10;11.02;;;5.80;99.90;;;;;;5014236;28;20044;-58
2022/03/05 12:28:12;;;;;;;22.83;11.18;;;5.90;99.90;;;;;;5032398;28;20060;-58
2022/03/05 12:30:39;;;;;;;22.58;11.60;;;6.00;99.90;;;;;;5032157;28;20382;-58
2022/03/05 12:33:08;;;;;;;19.83;10.63;;;6.00;99.90;;;;;;5014443;28;20101;-58
2022/03/05 12:35:34;;;;;;;19.60;10.40;;;6.00;99.90;;;;;;5032012;28;20041;-58
2022/03/05 12:38:01;;;;;;;20.48;11.23;;;6.10;99.90;;;;;;5032214;28;20429;-58
2022/03/05 12:40:29;;;;;;;19.35;10.98;;;6.10;99.90;;;;;;5031798;28;20045;-59
2022/03/05 12:42:56;;;;;;;20.27;11.20;;;6.10;99.90;;;;;;5031935;28;20041;-58
2022/03/05 12:45:28;;;;;;;19.10;10.65;;;6.20;99.90;;;;;;5032190;28;20041;-58